createdAt,value
2018-08-16T00:00:05.235Z,1015.40
2018-08-16T00:01:05.248Z,1015.39
2018-08-16T00:02:05.259Z,1015.41
2018-08-16T00:03:05.258Z,1015.38
2018-08-16T00:04:05.284Z,1015.40
2018-08-16T00:05:05.262Z,1015.46
2018-08-16T00:06:05.337Z,1015.41
2018-08-16T00:07:05.307Z,1015.40
2018-08-16T00:08:05.337Z,1015.41
2018-08-16T00:09:05.521Z,1015.45
2018-08-16T00:10:05.351Z,1015.46
2018-08-16T00:11:05.398Z,1015.43
2018-08-16T00:12:05.430Z,1015.42
2018-08-16T00:13:05.386Z,1015.40
2018-08-16T00:14:05.392Z,1015.44
2018-08-16T00:15:05.421Z,1015.45
2018-08-16T00:16:05.404Z,1015.40
2018-08-16T00:17:05.494Z,1015.40
2018-08-16T00:18:05.508Z,1015.41
2018-08-16T00:19:05.443Z,1015.41
2018-08-16T00:20:05.475Z,1015.41
2018-08-16T00:21:05.476Z,1015.40
2018-08-16T00:22:05.489Z,1015.39
2018-08-16T00:23:05.549Z,1015.40
2018-08-16T00:24:05.494Z,1015.42
2018-08-16T00:25:05.557Z,1015.39
2018-08-16T00:26:05.554Z,1015.45
2018-08-16T00:27:05.550Z,1015.42
2018-08-16T00:28:05.591Z,1015.45
2018-08-16T00:29:05.575Z,1015.45
2018-08-16T00:30:05.713Z,1015.41
2018-08-16T00:31:05.627Z,1015.43
2018-08-16T00:32:05.607Z,1015.43
2018-08-16T00:33:05.638Z,1015.39
2018-08-16T00:34:05.628Z,1015.40
2018-08-16T00:35:05.654Z,1015.40
2018-08-16T00:36:05.696Z,1015.40
2018-08-16T00:37:05.731Z,1015.39
2018-08-16T00:38:05.669Z,1015.39
2018-08-16T00:39:05.693Z,1015.40
2018-08-16T00:40:05.714Z,1015.41
2018-08-16T00:41:05.709Z,1015.39
2018-08-16T00:42:05.760Z,1015.39
2018-08-16T00:43:05.753Z,1015.37
2018-08-16T00:44:05.800Z,1015.41
2018-08-16T00:45:05.790Z,1015.40
2018-08-16T00:46:05.782Z,1015.40
2018-08-16T00:47:05.812Z,1015.38
2018-08-16T00:48:05.847Z,1015.36
2018-08-16T00:49:05.806Z,1015.38
2018-08-16T00:50:05.817Z,1015.34
2018-08-16T00:51:05.836Z,1015.35
2018-08-16T00:52:05.833Z,1015.37
2018-08-16T00:53:05.899Z,1015.34
2018-08-16T00:54:05.937Z,1015.36
2018-08-16T00:55:05.880Z,1015.31
2018-08-16T00:56:05.909Z,1015.31
2018-08-16T00:57:05.935Z,1015.30
2018-08-16T00:58:05.929Z,1015.31
2018-08-16T00:59:05.982Z,1015.31
2018-08-16T01:00:06.009Z,1015.30
2018-08-16T01:01:05.943Z,1015.31
2018-08-16T01:02:05.968Z,1015.32
2018-08-16T01:03:05.969Z,1015.28
2018-08-16T01:04:05.994Z,1015.32
2018-08-16T01:05:06.041Z,1015.36
2018-08-16T01:06:06.038Z,1015.35
2018-08-16T01:07:06.044Z,1015.37
2018-08-16T01:08:06.047Z,1015.35
2018-08-16T01:09:06.058Z,1015.35
2018-08-16T01:10:06.107Z,1015.32
2018-08-16T01:11:06.084Z,1015.32
2018-08-16T01:12:06.094Z,1015.35
2018-08-16T01:13:06.133Z,1015.32
2018-08-16T01:14:06.108Z,1015.27
2018-08-16T01:15:06.166Z,1015.28
2018-08-16T01:16:06.149Z,1015.30
2018-08-16T01:17:06.150Z,1015.29
2018-08-16T01:18:06.172Z,1015.31
2018-08-16T01:19:06.171Z,1015.31
2018-08-16T01:20:06.244Z,1015.30
2018-08-16T01:21:06.248Z,1015.31
2018-08-16T01:22:06.201Z,1015.28
2018-08-16T01:23:06.214Z,1015.30
2018-08-16T01:24:06.209Z,1015.28
2018-08-16T01:25:06.344Z,1015.27
2018-08-16T01:26:06.271Z,1015.25
2018-08-16T01:27:06.290Z,1015.30
2018-08-16T01:28:06.278Z,1015.26
2018-08-16T01:29:06.281Z,1015.31
2018-08-16T01:30:06.287Z,1015.28
2018-08-16T01:31:06.342Z,1015.27
2018-08-16T01:32:06.344Z,1015.26
2018-08-16T01:33:06.334Z,1015.28
2018-08-16T01:34:06.335Z,1015.28
2018-08-16T01:35:06.391Z,1015.29
2018-08-16T01:36:06.370Z,1015.29
2018-08-16T01:37:06.396Z,1015.28
2018-08-16T01:38:06.420Z,1015.26
2018-08-16T01:39:06.415Z,1015.28
2018-08-16T01:40:06.403Z,1015.27
2018-08-16T01:41:06.445Z,1015.29
2018-08-16T01:42:06.429Z,1015.26
2018-08-16T01:43:06.500Z,1015.29
2018-08-16T01:44:06.470Z,1015.31
2018-08-16T01:45:06.487Z,1015.30
2018-08-16T01:46:06.492Z,1015.30
2018-08-16T01:47:06.541Z,1015.29
2018-08-16T01:48:06.584Z,1015.34
2018-08-16T01:49:06.529Z,1015.28
2018-08-16T01:50:06.533Z,1015.28
2018-08-16T01:51:06.577Z,1015.31
2018-08-16T01:52:06.588Z,1015.28
2018-08-16T01:53:06.594Z,1015.31
2018-08-16T01:54:06.592Z,1015.30
2018-08-16T01:55:06.606Z,1015.31
2018-08-16T01:56:06.637Z,1015.29
2018-08-16T01:57:06.649Z,1015.29
2018-08-16T01:58:06.646Z,1015.30
2018-08-16T01:59:06.648Z,1015.28
2018-08-16T02:00:06.673Z,1015.28
2018-08-16T02:01:06.726Z,1015.24
2018-08-16T02:02:06.673Z,1015.23
2018-08-16T02:03:06.681Z,1015.21
2018-08-16T02:04:06.697Z,1015.23
2018-08-16T02:05:06.720Z,1015.24
2018-08-16T02:06:06.730Z,1015.17
2018-08-16T02:07:06.749Z,1015.23
2018-08-16T02:08:06.746Z,1015.23
2018-08-16T02:09:06.748Z,1015.24
2018-08-16T02:10:06.776Z,1015.26
2018-08-16T02:11:06.827Z,1015.24
2018-08-16T02:12:06.800Z,1015.26
2018-08-16T02:13:06.826Z,1015.26
2018-08-16T02:14:06.820Z,1015.27
2018-08-16T02:15:06.827Z,1015.25
2018-08-16T02:16:06.848Z,1015.24
2018-08-16T02:17:06.842Z,1015.23
2018-08-16T02:18:06.932Z,1015.26
2018-08-16T02:19:06.881Z,1015.26
2018-08-16T02:20:06.922Z,1015.27
2018-08-16T02:21:06.912Z,1015.28
2018-08-16T02:22:06.905Z,1015.28
2018-08-16T02:23:06.988Z,1015.29
2018-08-16T02:24:06.984Z,1015.26
2018-08-16T02:25:06.961Z,1015.27
2018-08-16T02:26:06.941Z,1015.31
2018-08-16T02:27:07.004Z,1015.28
2018-08-16T02:28:06.970Z,1015.28
2018-08-16T02:29:07.012Z,1015.30
2018-08-16T02:30:07.005Z,1015.28
2018-08-16T02:31:07.082Z,1015.28
2018-08-16T02:32:07.031Z,1015.28
2018-08-16T02:33:07.052Z,1015.29
2018-08-16T02:34:07.091Z,1015.30
2018-08-16T02:35:07.069Z,1015.30
2018-08-16T02:36:07.153Z,1015.32
2018-08-16T02:37:07.098Z,1015.32
2018-08-16T02:38:07.149Z,1015.33
2018-08-16T02:39:07.107Z,1015.33
2018-08-16T02:40:07.147Z,1015.33
2018-08-16T02:41:07.158Z,1015.30
2018-08-16T02:42:07.150Z,1015.31
2018-08-16T02:43:07.205Z,1015.28
2018-08-16T02:44:07.169Z,1015.27
2018-08-16T02:45:07.174Z,1015.27
2018-08-16T02:46:07.196Z,1015.29
2018-08-16T02:47:07.185Z,1015.28
2018-08-16T02:48:07.270Z,1015.27
2018-08-16T02:49:07.219Z,1015.26
2018-08-16T02:50:07.243Z,1015.28
2018-08-16T02:51:07.255Z,1015.27
2018-08-16T02:52:07.266Z,1015.24
2018-08-16T02:53:07.305Z,1015.25
2018-08-16T02:54:07.296Z,1015.27
2018-08-16T02:55:07.344Z,1015.22
2018-08-16T02:56:07.329Z,1015.20
2018-08-16T02:57:07.337Z,1015.20
2018-08-16T02:58:07.346Z,1015.18
2018-08-16T02:59:07.347Z,1015.18
2018-08-16T03:00:07.406Z,1015.20
2018-08-16T03:01:07.359Z,1015.20
2018-08-16T03:02:07.363Z,1015.23
2018-08-16T03:03:07.398Z,1015.19
2018-08-16T03:04:07.396Z,1015.20
2018-08-16T03:05:07.449Z,1015.19
2018-08-16T03:06:07.480Z,1015.15
2018-08-16T03:07:07.480Z,1015.16
2018-08-16T03:08:07.452Z,1015.13
2018-08-16T03:09:07.449Z,1015.18
2018-08-16T03:10:07.478Z,1015.15
2018-08-16T03:11:07.507Z,1015.15
2018-08-16T03:12:07.524Z,1015.11
2018-08-16T03:13:15.696Z,1015.11
2018-08-16T03:14:07.516Z,1015.10
2018-08-16T03:15:07.515Z,1015.06
2018-08-16T03:16:07.565Z,1015.10
2018-08-16T03:17:07.541Z,1015.12
2018-08-16T03:18:07.584Z,1015.07
2018-08-16T03:19:07.569Z,1015.08
2018-08-16T03:20:07.601Z,1015.07
2018-08-16T03:21:07.657Z,1015.07
2018-08-16T03:22:07.627Z,1015.12
2018-08-16T03:23:07.681Z,1015.05
2018-08-16T03:24:07.647Z,1015.09
2018-08-16T03:25:07.644Z,1015.08
2018-08-16T03:26:07.659Z,1015.10
2018-08-16T03:27:07.701Z,1015.12
2018-08-16T03:28:07.678Z,1015.09
2018-08-16T03:29:07.711Z,1015.05
2018-08-16T03:30:07.708Z,1015.10
2018-08-16T03:31:07.718Z,1015.08
2018-08-16T03:32:07.748Z,1015.09
2018-08-16T03:33:07.790Z,1015.12
2018-08-16T03:34:07.732Z,1015.11
2018-08-16T03:35:07.761Z,1015.15
2018-08-16T03:36:07.774Z,1015.16
2018-08-16T03:37:07.779Z,1015.19
2018-08-16T03:38:07.818Z,1015.17
2018-08-16T03:39:07.800Z,1015.22
2018-08-16T03:40:07.835Z,1015.17
2018-08-16T03:41:07.849Z,1015.18
2018-08-16T03:42:07.867Z,1015.18
2018-08-16T03:43:07.909Z,1015.17
2018-08-16T03:44:07.928Z,1015.20
2018-08-16T03:45:07.889Z,1015.19
2018-08-16T03:46:07.895Z,1015.22
2018-08-16T03:47:07.911Z,1015.21
2018-08-16T03:48:07.938Z,1015.19
2018-08-16T03:49:07.963Z,1015.21
2018-08-16T03:50:07.919Z,1015.22
2018-08-16T03:51:07.971Z,1015.20
2018-08-16T03:52:07.981Z,1015.21
2018-08-16T03:53:07.991Z,1015.20
2018-08-16T03:54:08.043Z,1015.20
2018-08-16T03:55:08.022Z,1015.17
2018-08-16T03:56:08.012Z,1015.16
2018-08-16T03:57:08.023Z,1015.14
2018-08-16T03:58:08.020Z,1015.20
2018-08-16T03:59:08.074Z,1015.17
2018-08-16T04:00:08.069Z,1015.18
2018-08-16T04:01:08.060Z,1015.22
2018-08-16T04:02:08.095Z,1015.17
2018-08-16T04:03:08.112Z,1015.18
2018-08-16T04:04:08.118Z,1015.16
2018-08-16T04:05:08.113Z,1015.18
2018-08-16T04:06:08.116Z,1015.19
2018-08-16T04:07:08.121Z,1015.20
2018-08-16T04:08:08.206Z,1015.20
2018-08-16T04:09:08.153Z,1015.23
2018-08-16T04:10:08.203Z,1015.26
2018-08-16T04:11:08.170Z,1015.24
2018-08-16T04:12:08.193Z,1015.24
2018-08-16T04:13:08.227Z,1015.21
2018-08-16T04:14:08.246Z,1015.23
2018-08-16T04:15:08.248Z,1015.26
2018-08-16T04:16:08.259Z,1015.22
2018-08-16T04:17:08.245Z,1015.18
2018-08-16T04:18:08.257Z,1015.21
2018-08-16T04:19:08.260Z,1015.22
2018-08-16T04:20:08.338Z,1015.22
2018-08-16T04:21:08.353Z,1015.21
2018-08-16T04:22:08.303Z,1015.26
2018-08-16T04:23:08.353Z,1015.26
2018-08-16T04:24:08.369Z,1015.26
2018-08-16T04:25:08.348Z,1015.30
2018-08-16T04:26:08.388Z,1015.28
2018-08-16T04:27:08.394Z,1015.30
2018-08-16T04:28:08.383Z,1015.27
2018-08-16T04:29:08.411Z,1015.24
2018-08-16T04:30:08.416Z,1015.23
2018-08-16T04:31:08.402Z,1015.25
2018-08-16T04:32:08.437Z,1015.24
2018-08-16T04:33:08.441Z,1015.27
2018-08-16T04:34:08.443Z,1015.25
2018-08-16T04:35:08.554Z,1015.27
2018-08-16T04:36:08.584Z,1015.32
2018-08-16T04:37:08.491Z,1015.32
2018-08-16T04:38:08.562Z,1015.30
2018-08-16T04:39:08.510Z,1015.27
2018-08-16T04:40:08.516Z,1015.28
2018-08-16T04:41:08.534Z,1015.27
2018-08-16T04:42:08.677Z,1015.26
2018-08-16T04:43:08.603Z,1015.31
2018-08-16T04:44:08.639Z,1015.33
2018-08-16T04:45:08.630Z,1015.32
2018-08-16T04:46:08.637Z,1015.32
2018-08-16T04:47:08.597Z,1015.29
2018-08-16T04:48:08.660Z,1015.28
2018-08-16T04:49:08.627Z,1015.28
2018-08-16T04:50:08.652Z,1015.29
2018-08-16T04:51:08.673Z,1015.29
2018-08-16T04:52:08.680Z,1015.28
2018-08-16T04:53:08.683Z,1015.30
2018-08-16T04:54:08.681Z,1015.27
2018-08-16T04:55:08.670Z,1015.31
2018-08-16T04:56:08.784Z,1015.33
2018-08-16T04:57:08.717Z,1015.29
2018-08-16T04:58:08.777Z,1015.34
2018-08-16T04:59:08.727Z,1015.34
2018-08-16T05:00:08.766Z,1015.34
2018-08-16T05:01:08.753Z,1015.34
2018-08-16T05:02:08.781Z,1015.32
2018-08-16T05:03:08.833Z,1015.35
2018-08-16T05:04:08.800Z,1015.33
2018-08-16T05:05:08.821Z,1015.34
2018-08-16T05:06:08.834Z,1015.33
2018-08-16T05:07:08.852Z,1015.34
2018-08-16T05:08:08.893Z,1015.32
2018-08-16T05:09:08.866Z,1015.34
2018-08-16T05:10:08.920Z,1015.39
2018-08-16T05:11:08.943Z,1015.34
2018-08-16T05:12:08.919Z,1015.39
2018-08-16T05:13:08.927Z,1015.34
2018-08-16T05:14:08.943Z,1015.35
2018-08-16T05:15:08.996Z,1015.35
2018-08-16T05:16:08.986Z,1015.36
2018-08-16T05:17:08.984Z,1015.36
2018-08-16T05:18:08.958Z,1015.36
2018-08-16T05:19:09.080Z,1015.35
2018-08-16T05:20:09.024Z,1015.36
2018-08-16T05:21:09.013Z,1015.34
2018-08-16T05:22:09.034Z,1015.38
2018-08-16T05:23:09.114Z,1015.38
2018-08-16T05:24:09.065Z,1015.41
2018-08-16T05:25:09.130Z,1015.36
2018-08-16T05:26:09.070Z,1015.38
2018-08-16T05:27:09.109Z,1015.35
2018-08-16T05:28:09.114Z,1015.36
2018-08-16T05:29:09.115Z,1015.38
2018-08-16T05:30:09.108Z,1015.38
2018-08-16T05:31:09.185Z,1015.35
2018-08-16T05:32:09.154Z,1015.32
2018-08-16T05:33:09.187Z,1015.35
2018-08-16T05:34:09.182Z,1015.35
2018-08-16T05:35:09.207Z,1015.39
2018-08-16T05:36:09.201Z,1015.36
2018-08-16T05:37:09.200Z,1015.38
2018-08-16T05:38:09.230Z,1015.36
2018-08-16T05:39:09.300Z,1015.35
2018-08-16T05:40:09.264Z,1015.36
2018-08-16T05:41:09.278Z,1015.38
2018-08-16T05:42:09.280Z,1015.41
2018-08-16T05:43:09.382Z,1015.36
2018-08-16T05:44:09.293Z,1015.36
2018-08-16T05:45:09.402Z,1015.35
2018-08-16T05:46:09.341Z,1015.34
2018-08-16T05:47:09.334Z,1015.36
2018-08-16T05:48:09.382Z,1015.33
2018-08-16T05:49:09.382Z,1015.36
2018-08-16T05:50:09.422Z,1015.34
2018-08-16T05:51:09.427Z,1015.35
2018-08-16T05:52:09.420Z,1015.37
2018-08-16T05:53:09.485Z,1015.32
2018-08-16T05:54:09.488Z,1015.32
2018-08-16T05:55:09.465Z,1015.30
2018-08-16T05:56:09.491Z,1015.32
2018-08-16T05:57:09.495Z,1015.33
2018-08-16T05:58:09.544Z,1015.32
2018-08-16T05:59:09.504Z,1015.31
2018-08-16T06:00:09.569Z,1015.30
2018-08-16T06:01:09.539Z,1015.32
2018-08-16T06:02:09.550Z,1015.31
2018-08-16T06:03:09.653Z,1015.27
2018-08-16T06:04:09.688Z,1015.29
2018-08-16T06:05:09.594Z,1015.25
2018-08-16T06:06:09.612Z,1015.23
2018-08-16T06:07:09.598Z,1015.23
2018-08-16T06:08:09.633Z,1015.24
2018-08-16T06:09:09.669Z,1015.25
2018-08-16T06:10:09.679Z,1015.27
2018-08-16T06:11:09.682Z,1015.23
2018-08-16T06:12:09.749Z,1015.24
2018-08-16T06:13:09.720Z,1015.22
2018-08-16T06:14:09.776Z,1015.24
2018-08-16T06:15:09.813Z,1015.24
2018-08-16T06:16:09.743Z,1015.24
2018-08-16T06:17:09.743Z,1015.24
2018-08-16T06:18:09.757Z,1015.20
2018-08-16T06:19:09.793Z,1015.24
2018-08-16T06:20:09.825Z,1015.21
2018-08-16T06:21:09.796Z,1015.20
2018-08-16T06:22:09.857Z,1015.23
2018-08-16T06:23:09.867Z,1015.23
2018-08-16T06:24:09.955Z,1015.22
2018-08-16T06:25:09.877Z,1015.24
2018-08-16T06:26:09.997Z,1015.18
2018-08-16T06:27:09.899Z,1015.20
2018-08-16T06:28:09.922Z,1015.20
2018-08-16T06:29:09.942Z,1015.24
2018-08-16T06:30:09.971Z,1015.22
2018-08-16T06:31:10.020Z,1015.25
2018-08-16T06:32:10.059Z,1015.22
2018-08-16T06:33:09.967Z,1015.26
2018-08-16T06:34:10.015Z,1015.24
2018-08-16T06:35:09.997Z,1015.26
2018-08-16T06:36:10.013Z,1015.26
2018-08-16T06:37:10.093Z,1015.22
2018-08-16T06:38:10.033Z,1015.22
2018-08-16T06:39:10.067Z,1015.23
2018-08-16T06:40:10.083Z,1015.24
2018-08-16T06:41:10.111Z,1015.24
2018-08-16T06:42:10.163Z,1015.20
2018-08-16T06:43:10.165Z,1015.19
2018-08-16T06:44:10.149Z,1015.14
2018-08-16T06:45:10.134Z,1015.19
2018-08-16T06:46:10.272Z,1015.18
2018-08-16T06:47:10.186Z,1015.18
2018-08-16T06:48:10.195Z,1015.16
2018-08-16T06:49:10.266Z,1015.11
2018-08-16T06:50:10.229Z,1015.08
2018-08-16T06:51:10.265Z,1015.09
2018-08-16T06:52:10.269Z,1015.14
2018-08-16T06:53:10.274Z,1015.12
2018-08-16T06:54:10.304Z,1015.15
2018-08-16T06:55:10.291Z,1015.13
2018-08-16T06:56:10.317Z,1015.13
2018-08-16T06:57:10.338Z,1015.13
2018-08-16T06:58:10.408Z,1015.13
2018-08-16T06:59:10.386Z,1015.12
2018-08-16T07:00:10.431Z,1015.10
2018-08-16T07:01:10.398Z,1015.10
2018-08-16T07:02:10.407Z,1015.10
2018-08-16T07:03:10.406Z,1015.09
2018-08-16T07:04:10.487Z,1015.12
2018-08-16T07:05:10.506Z,1015.12
2018-08-16T07:06:10.496Z,1015.11
2018-08-16T07:07:10.468Z,1015.09
2018-08-16T07:08:10.505Z,1015.11
2018-08-16T07:09:10.973Z,1015.10
2018-08-16T07:10:10.521Z,1015.11
2018-08-16T07:11:10.529Z,1015.11
2018-08-16T07:12:10.687Z,1015.13
2018-08-16T07:13:10.550Z,1015.13
2018-08-16T07:14:10.590Z,1015.16
2018-08-16T07:15:10.663Z,1015.19
2018-08-16T07:16:10.649Z,1015.17
2018-08-16T07:17:10.614Z,1015.18
2018-08-16T07:18:10.626Z,1015.18
2018-08-16T07:19:10.687Z,1015.16
2018-08-16T07:20:10.691Z,1015.18
2018-08-16T07:21:10.689Z,1015.17
2018-08-16T07:22:10.738Z,1015.16
2018-08-16T07:23:10.706Z,1015.13
2018-08-16T07:24:10.722Z,1015.13
2018-08-16T07:25:10.766Z,1015.11
2018-08-16T07:26:10.766Z,1015.15
2018-08-16T07:27:10.809Z,1015.10
2018-08-16T07:28:10.785Z,1015.09
2018-08-16T07:29:10.847Z,1015.08
2018-08-16T07:30:10.864Z,1015.11
2018-08-16T07:31:10.838Z,1015.07
2018-08-16T07:32:10.852Z,1015.11
2018-08-16T07:33:10.842Z,1015.09
2018-08-16T07:34:10.884Z,1015.09
2018-08-16T07:35:10.906Z,1015.07
2018-08-16T07:36:10.897Z,1015.09
2018-08-16T07:37:10.938Z,1015.06
2018-08-16T07:38:10.937Z,1015.04
2018-08-16T07:39:10.914Z,1015.10
2018-08-16T07:40:10.962Z,1015.09
2018-08-16T07:41:10.969Z,1015.08
2018-08-16T07:42:10.995Z,1015.09
2018-08-16T07:43:11.000Z,1015.11
2018-08-16T07:44:11.076Z,1015.08
2018-08-16T07:45:11.063Z,1015.09
2018-08-16T07:46:11.101Z,1015.10
2018-08-16T07:47:11.121Z,1015.10
2018-08-16T07:48:11.055Z,1015.10
2018-08-16T07:49:11.089Z,1015.09
2018-08-16T07:50:11.098Z,1015.09
2018-08-16T07:51:11.193Z,1015.10
2018-08-16T07:52:11.202Z,1015.08
2018-08-16T07:53:11.127Z,1015.06
2018-08-16T07:54:11.126Z,1015.06
2018-08-16T07:55:11.146Z,1015.05
2018-08-16T07:56:11.165Z,1015.02
2018-08-16T07:57:11.209Z,1015.02
2018-08-16T07:58:11.193Z,1015.02
2018-08-16T07:59:11.253Z,1015.02
2018-08-16T08:00:11.226Z,1015.04
2018-08-16T08:01:11.245Z,1015.04
2018-08-16T08:02:11.256Z,1015.02
2018-08-16T08:03:11.257Z,1015.03
2018-08-16T08:04:11.329Z,1015.00
2018-08-16T08:05:11.341Z,1015.01
2018-08-16T08:06:11.299Z,1015.03
2018-08-16T08:07:11.357Z,1015.08
2018-08-16T08:08:11.325Z,1015.12
2018-08-16T08:09:11.476Z,1015.04
2018-08-16T08:10:11.412Z,1015.06
2018-08-16T08:11:11.360Z,1015.04
2018-08-16T08:12:11.397Z,1015.05
2018-08-16T08:13:11.413Z,1015.04
2018-08-16T08:14:11.412Z,1015.03
2018-08-16T08:15:11.489Z,1015.03
2018-08-16T08:16:11.436Z,1015.00
2018-08-16T08:17:11.464Z,1015.01
2018-08-16T08:18:11.481Z,1014.99
2018-08-16T08:19:11.575Z,1014.98
2018-08-16T08:20:11.480Z,1014.97
2018-08-16T08:21:11.500Z,1014.94
2018-08-16T08:22:11.528Z,1014.96
2018-08-16T08:23:11.532Z,1014.99
2018-08-16T08:24:11.560Z,1014.94
2018-08-16T08:25:11.591Z,1014.93
2018-08-16T08:26:11.627Z,1014.94
2018-08-16T08:27:11.588Z,1014.90
2018-08-16T08:28:11.600Z,1014.86
2018-08-16T08:29:11.659Z,1014.89
2018-08-16T08:30:11.645Z,1014.86
2018-08-16T08:31:11.697Z,1014.85
2018-08-16T08:32:11.727Z,1014.82
2018-08-16T08:33:11.688Z,1014.85
2018-08-16T08:34:11.697Z,1014.84
2018-08-16T08:35:11.726Z,1014.83
2018-08-16T08:36:11.816Z,1014.81
2018-08-16T08:37:11.732Z,1014.81
2018-08-16T08:38:11.762Z,1014.84
2018-08-16T08:39:11.780Z,1014.80
2018-08-16T08:40:11.794Z,1014.79
2018-08-16T08:41:11.845Z,1014.82
2018-08-16T08:42:11.802Z,1014.79
2018-08-16T08:43:11.866Z,1014.76
2018-08-16T08:44:11.810Z,1014.76
2018-08-16T08:45:11.864Z,1014.72
2018-08-16T08:46:11.877Z,1014.74
2018-08-16T08:47:11.858Z,1014.73
2018-08-16T08:48:11.924Z,1014.69
2018-08-16T08:49:11.935Z,1014.68
2018-08-16T08:50:11.947Z,1014.64
2018-08-16T08:51:11.915Z,1014.64
2018-08-16T08:52:11.969Z,1014.67
2018-08-16T08:53:11.943Z,1014.62
2018-08-16T08:54:12.022Z,1014.58
2018-08-16T08:55:11.999Z,1014.58
2018-08-16T08:56:12.004Z,1014.56
2018-08-16T08:57:12.013Z,1014.57
2018-08-16T08:58:12.028Z,1014.56
2018-08-16T08:59:12.123Z,1014.56
2018-08-16T09:00:12.122Z,1014.57
2018-08-16T09:01:12.067Z,1014.53
2018-08-16T09:02:12.080Z,1014.54
2018-08-16T09:03:12.106Z,1014.54
2018-08-16T09:04:12.089Z,1014.53
2018-08-16T09:05:12.266Z,1014.54
2018-08-16T09:06:12.149Z,1014.53
2018-08-16T09:07:12.170Z,1014.54
2018-08-16T09:08:12.200Z,1014.53
2018-08-16T09:09:12.194Z,1014.54
2018-08-16T09:10:12.237Z,1014.47
2018-08-16T09:11:12.198Z,1014.52
2018-08-16T09:12:12.203Z,1014.54
2018-08-16T09:13:12.211Z,1014.53
2018-08-16T09:14:12.272Z,1014.55
2018-08-16T09:15:12.357Z,1014.50
2018-08-16T09:16:12.339Z,1014.49
2018-08-16T09:17:12.292Z,1014.47
2018-08-16T09:18:12.311Z,1014.48
2018-08-16T09:19:12.359Z,1014.47
2018-08-16T09:20:12.333Z,1014.43
2018-08-16T09:21:12.632Z,1014.42
2018-08-16T09:22:12.367Z,1014.42
2018-08-16T09:23:12.376Z,1014.39
2018-08-16T09:24:12.528Z,1014.41
2018-08-16T09:25:12.393Z,1014.44
2018-08-16T09:26:12.407Z,1014.38
2018-08-16T09:27:12.480Z,1014.39
2018-08-16T09:28:12.461Z,1014.38
2018-08-16T09:29:12.470Z,1014.37
2018-08-16T09:30:12.482Z,1014.36
2018-08-16T09:31:12.519Z,1014.36
2018-08-16T09:32:12.513Z,1014.35
2018-08-16T09:33:12.539Z,1014.30
2018-08-16T09:34:12.529Z,1014.34
2018-08-16T09:35:12.587Z,1014.28
2018-08-16T09:36:12.624Z,1014.30
2018-08-16T09:37:12.615Z,1014.24
2018-08-16T09:38:12.582Z,1014.26
2018-08-16T09:39:12.615Z,1014.21
2018-08-16T09:40:12.595Z,1014.27
2018-08-16T09:41:12.671Z,1014.23
2018-08-16T09:42:12.627Z,1014.26
2018-08-16T09:43:12.661Z,1014.31
2018-08-16T09:44:12.672Z,1014.28
2018-08-16T09:45:12.734Z,1014.27
2018-08-16T09:46:12.744Z,1014.27
2018-08-16T09:47:12.702Z,1014.28
2018-08-16T09:48:12.728Z,1014.29
2018-08-16T09:49:12.724Z,1014.27
2018-08-16T09:50:12.770Z,1014.24
2018-08-16T09:51:12.837Z,1014.23
2018-08-16T09:52:12.795Z,1014.24
2018-08-16T09:53:12.811Z,1014.20
2018-08-16T09:54:12.794Z,1014.16
2018-08-16T09:55:12.822Z,1014.14
2018-08-16T09:56:12.829Z,1014.12
2018-08-16T09:57:12.829Z,1014.10
2018-08-16T09:58:12.886Z,1014.08
2018-08-16T09:59:12.874Z,1014.07
2018-08-16T10:00:12.902Z,1014.09
2018-08-16T10:01:12.907Z,1014.03
2018-08-16T10:02:13.091Z,1014.04
2018-08-16T10:03:12.970Z,1014.08
2018-08-16T10:04:12.988Z,1014.05
2018-08-16T10:05:12.992Z,1014.04
2018-08-16T10:06:12.970Z,1014.04
2018-08-16T10:07:12.991Z,1014.03
2018-08-16T10:08:12.995Z,1014.04
2018-08-16T10:09:13.000Z,1014.00
2018-08-16T10:10:13.115Z,1013.98
2018-08-16T10:11:13.076Z,1013.95
2018-08-16T10:12:13.079Z,1013.94
2018-08-16T10:13:13.088Z,1013.92
2018-08-16T10:14:13.108Z,1013.94
2018-08-16T10:15:13.144Z,1013.91
2018-08-16T10:16:13.116Z,1013.90
2018-08-16T10:17:13.119Z,1013.85
2018-08-16T10:18:13.214Z,1013.88
2018-08-16T10:19:13.148Z,1013.91
2018-08-16T10:20:13.222Z,1013.87
2018-08-16T10:21:13.191Z,1013.83
2018-08-16T10:22:13.197Z,1013.84
2018-08-16T10:23:13.247Z,1013.81
2018-08-16T10:24:13.240Z,1013.81
2018-08-16T10:25:13.277Z,1013.76
2018-08-16T10:26:13.287Z,1013.76
2018-08-16T10:27:13.346Z,1013.73
2018-08-16T10:28:13.289Z,1013.80
2018-08-16T10:29:13.293Z,1013.75
2018-08-16T10:30:13.314Z,1013.75
2018-08-16T10:31:13.310Z,1013.75
2018-08-16T10:32:13.412Z,1013.77
2018-08-16T10:33:13.376Z,1013.74
2018-08-16T10:34:13.383Z,1013.71
2018-08-16T10:35:13.383Z,1013.69
2018-08-16T10:36:13.441Z,1013.70
2018-08-16T10:37:13.557Z,1013.68
2018-08-16T10:38:13.423Z,1013.72
2018-08-16T10:39:13.449Z,1013.71
2018-08-16T10:40:13.479Z,1013.73
2018-08-16T10:41:13.452Z,1013.71
2018-08-16T10:42:13.506Z,1013.68
2018-08-16T10:43:13.512Z,1013.71
2018-08-16T10:44:13.707Z,1013.65
2018-08-16T10:45:13.515Z,1013.65
2018-08-16T10:46:13.574Z,1013.72
2018-08-16T10:47:13.566Z,1013.72
2018-08-16T10:48:13.571Z,1013.72
2018-08-16T10:49:13.595Z,1013.77
2018-08-16T10:50:13.643Z,1013.74
2018-08-16T10:51:13.665Z,1013.77
2018-08-16T10:52:13.643Z,1013.69
2018-08-16T10:53:13.634Z,1013.72
2018-08-16T10:54:13.659Z,1013.76
2018-08-16T10:55:13.702Z,1013.73
2018-08-16T10:56:13.674Z,1013.73
2018-08-16T10:57:13.754Z,1013.65
2018-08-16T10:58:13.702Z,1013.67
2018-08-16T10:59:13.751Z,1013.68
2018-08-16T11:00:13.758Z,1013.62
2018-08-16T11:01:13.817Z,1013.54
2018-08-16T11:02:13.821Z,1013.61
2018-08-16T11:03:13.832Z,1013.58
2018-08-16T11:04:13.803Z,1013.60
2018-08-16T11:05:13.813Z,1013.51
2018-08-16T11:06:13.872Z,1013.49
2018-08-16T11:07:13.844Z,1013.51
2018-08-16T11:08:13.903Z,1013.53
2018-08-16T11:09:13.913Z,1013.54
2018-08-16T11:10:13.968Z,1013.52
2018-08-16T11:11:13.926Z,1013.50
2018-08-16T11:12:13.928Z,1013.49
2018-08-16T11:13:13.941Z,1013.50
2018-08-16T11:14:13.997Z,1013.48
2018-08-16T11:15:13.954Z,1013.47
2018-08-16T11:16:13.990Z,1013.48
2018-08-16T11:17:14.027Z,1013.48
2018-08-16T11:18:14.015Z,1013.47
2018-08-16T11:19:14.082Z,1013.44
2018-08-16T11:20:14.030Z,1013.41
2018-08-16T11:21:14.057Z,1013.40
2018-08-16T11:22:14.068Z,1013.42
2018-08-16T11:23:14.072Z,1013.35
2018-08-16T11:24:14.122Z,1013.34
2018-08-16T11:25:14.096Z,1013.33
2018-08-16T11:26:14.115Z,1013.31
2018-08-16T11:27:14.138Z,1013.34
2018-08-16T11:28:14.152Z,1013.32
2018-08-16T11:29:14.195Z,1013.30
2018-08-16T11:30:14.204Z,1013.26
2018-08-16T11:31:14.232Z,1013.27
2018-08-16T11:32:14.203Z,1013.25
2018-08-16T11:33:14.234Z,1013.24
2018-08-16T11:34:14.247Z,1013.18
2018-08-16T11:35:14.328Z,1013.20
2018-08-16T11:36:14.299Z,1013.17
2018-08-16T11:37:14.322Z,1013.16
2018-08-16T11:38:14.333Z,1013.20
2018-08-16T11:39:14.308Z,1013.13
2018-08-16T11:40:14.338Z,1013.12
2018-08-16T11:41:14.341Z,1013.15
2018-08-16T11:42:14.389Z,1013.12
2018-08-16T11:43:14.480Z,1013.12
2018-08-16T11:44:14.371Z,1013.08
2018-08-16T11:45:14.378Z,1013.04
2018-08-16T11:46:14.420Z,1013.04
2018-08-16T11:47:14.438Z,1013.03
2018-08-16T11:48:14.455Z,1013.02
2018-08-16T11:49:14.484Z,1013.00
2018-08-16T11:50:14.458Z,1012.94
2018-08-16T11:51:14.507Z,1012.96
2018-08-16T11:52:14.498Z,1012.95
2018-08-16T11:53:14.504Z,1012.94
2018-08-16T11:54:14.586Z,1012.94
2018-08-16T11:55:14.594Z,1012.95
2018-08-16T11:56:14.543Z,1012.96
2018-08-16T11:57:14.563Z,1012.91
2018-08-16T11:58:14.619Z,1012.87
2018-08-16T11:59:14.609Z,1012.90
2018-08-16T12:00:15.080Z,1012.93
2018-08-16T12:01:14.667Z,1012.93
2018-08-16T12:02:14.713Z,1012.93
2018-08-16T12:03:14.704Z,1012.90
2018-08-16T12:04:14.677Z,1012.93
2018-08-16T12:05:14.703Z,1012.92